sensor_id;sensor_type;location;lat;lon;timestamp;temperature;humidity
20384;DHT22;46458;50.966;7.002;2023-04-15T00:01:04;9.90;99.90
20384;DHT22;46458;50.966;7.002;2023-04-15T00:03:33;9.90;99.90
20384;DHT22;46458;50.966;7.002;2023-04-15T00:06:02;9.90;99.90
20384;DHT22;46458;50.966;7.002;2023-04-15T00:08:31;9.80;99.90
20384;DHT22;46458;50.966;7.002;2023-04-15T00:11:00;9.70;99.90
20384;DHT22;46458;50.966;7.002;2023-04-15T00:13:30;9.70;99.90
20384;DHT22;46458;50.966;7.002;2023-04-15T00:16:02;9.70;99.90
20384;DHT22;46458;50.966;7.002;2023-04-15T00:18:32;9.80;99.90
20384;DHT22;46458;50.966;7.002;2023-04-15T00:21:01;9.80;99.90
20384;DHT22;46458;50.966;7.002;2023-04-15T00:23:32;9.80;99.90
20384;DHT22;46458;50.966;7.002;2023-04-15T00:26:01;9.80;99.90
20384;DHT22;46458;50.966;7.002;2023-04-15T00:28:30;9.70;99.90
20384;DHT22;46458;50.966;7.002;2023-04-15T00:30:59;9.70;99.90
20384;DHT22;46458;50.966;7.002;2023-04-15T00:33:37;9.60;99.90
20384;DHT22;46458;50.966;7.002;2023-04-15T00:36:07;9.60;99.90
20384;DHT22;46458;50.966;7.002;2023-04-15T00:38:37;9.60;99.90
20384;DHT22;46458;50.966;7.002;2023-04-15T00:41:06;9.60;99.90
20384;DHT22;46458;50.966;7.002;2023-04-15T00:43:35;9.50;99.90
20384;DHT22;46458;50.966;7.002;2023-04-15T00:46:04;9.50;99.90
20384;DHT22;46458;50.966;7.002;2023-04-15T00:48:37;9.50;99.90
20384;DHT22;46458;50.966;7.002;2023-04-15T00:51:06;9.50;99.90
20384;DHT22;46458;50.966;7.002;2023-04-15T00:53:36;9.40;99.90
20384;DHT22;46458;50.966;7.002;2023-04-15T00:56:05;9.40;99.90
20384;DHT22;46458;50.966;7.002;2023-04-15T00:58:37;9.40;99.90
20384;DHT22;46458;50.966;7.002;2023-04-15T01:01:06;9.40;99.90
20384;DHT22;46458;50.966;7.002;2023-04-15T01:03:39;9.30;99.90
20384;DHT22;46458;50.966;7.002;2023-04-15T01:06:10;9.40;99.90
20384;DHT22;46458;50.966;7.002;2023-04-15T01:08:39;9.40;99.90
20384;DHT22;46458;50.966;7.002;2023-04-15T01:11:08;9.30;99.90
20384;DHT22;46458;50.966;7.002;2023-04-15T01:13:39;9.30;99.90
20384;DHT22;46458;50.966;7.002;2023-04-15T01:16:08;9.20;99.90
20384;DHT22;46458;50.966;7.002;2023-04-15T01:18:40;9.20;99.90
20384;DHT22;46458;50.966;7.002;2023-04-15T01:21:09;9.20;99.90
20384;DHT22;46458;50.966;7.002;2023-04-15T01:23:39;9.20;99.90
20384;DHT22;46458;50.966;7.002;2023-04-15T01:26:11;9.20;99.90
20384;DHT22;46458;50.966;7.002;2023-04-15T01:28:41;9.10;99.90
20384;DHT22;46458;50.966;7.002;2023-04-15T01:31:13;9.10;99.90
20384;DHT22;46458;50.966;7.002;2023-04-15T01:33:42;9.10;99.90
20384;DHT22;46458;50.966;7.002;2023-04-15T01:36:33;9.10;99.90
20384;DHT22;46458;50.966;7.002;2023-04-15T01:39:05;9.10;99.90
20384;DHT22;46458;50.966;7.002;2023-04-15T01:41:36;9.10;99.90
20384;DHT22;46458;50.966;7.002;2023-04-15T01:44:07;9.10;99.90
20384;DHT22;46458;50.966;7.002;2023-04-15T01:46:37;9.20;99.90
20384;DHT22;46458;50.966;7.002;2023-04-15T01:49:07;9.00;99.90
20384;DHT22;46458;50.966;7.002;2023-04-15T01:51:37;9.00;99.90
20384;DHT22;46458;50.966;7.002;2023-04-15T01:54:07;9.00;99.90
20384;DHT22;46458;50.966;7.002;2023-04-15T01:56:40;9.00;99.90
20384;DHT22;46458;50.966;7.002;2023-04-15T01:59:13;9.00;99.90
20384;DHT22;46458;50.966;7.002;2023-04-15T02:01:44;9.00;99.90
20384;DHT22;46458;50.966;7.002;2023-04-15T02:04:14;9.00;99.90
20384;DHT22;46458;50.966;7.002;2023-04-15T02:06:50;9.00;99.90
20384;DHT22;46458;50.966;7.002;2023-04-15T02:09:22;8.90;99.90
20384;DHT22;46458;50.966;7.002;2023-04-15T02:11:54;8.90;99.90
20384;DHT22;46458;50.966;7.002;2023-04-15T02:14:25;8.80;99.90
20384;DHT22;46458;50.966;7.002;2023-04-15T02:16:55;8.80;99.90
20384;DHT22;46458;50.966;7.002;2023-04-15T02:19:33;8.70;99.90
20384;DHT22;46458;50.966;7.002;2023-04-15T02:22:04;8.70;99.90
20384;DHT22;46458;50.966;7.002;2023-04-15T02:24:35;8.70;99.90
20384;DHT22;46458;50.966;7.002;2023-04-15T02:27:07;8.60;99.90
20384;DHT22;46458;50.966;7.002;2023-04-15T02:29:40;8.60;99.90
20384;DHT22;46458;50.966;7.002;2023-04-15T02:32:12;8.60;99.90
20384;DHT22;46458;50.966;7.002;2023-04-15T02:34:42;8.60;99.90
20384;DHT22;46458;50.966;7.002;2023-04-15T02:37:13;8.50;99.90
20384;DHT22;46458;50.966;7.002;2023-04-15T02:39:45;8.50;99.90
20384;DHT22;46458;50.966;7.002;2023-04-15T02:42:18;8.40;99.90
20384;DHT22;46458;50.966;7.002;2023-04-15T02:44:49;8.40;99.90
20384;DHT22;46458;50.966;7.002;2023-04-15T02:47:21;8.50;99.90
20384;DHT22;46458;50.966;7.002;2023-04-15T02:49:51;8.50;99.90
20384;DHT22;46458;50.966;7.002;2023-04-15T02:52:22;8.40;99.90
20384;DHT22;46458;50.966;7.002;2023-04-15T02:54:52;8.30;99.90
20384;DHT22;46458;50.966;7.002;2023-04-15T02:57:29;8.30;99.90
20384;DHT22;46458;50.966;7.002;2023-04-15T03:00:06;8.30;99.90
20384;DHT22;46458;50.966;7.002;2023-04-15T03:02:40;8.30;99.90
20384;DHT22;46458;50.966;7.002;2023-04-15T03:05:11;8.30;99.90
20384;DHT22;46458;50.966;7.002;2023-04-15T03:07:47;8.30;99.90
20384;DHT22;46458;50.966;7.002;2023-04-15T03:10:18;8.20;99.90
20384;DHT22;46458;50.966;7.002;2023-04-15T03:12:54;8.30;99.90
20384;DHT22;46458;50.966;7.002;2023-04-15T03:15:24;8.20;99.90
20384;DHT22;46458;50.966;7.002;2023-04-15T03:17:55;8.20;99.90
20384;DHT22;46458;50.966;7.002;2023-04-15T03:20:25;8.20;99.90
20384;DHT22;46458;50.966;7.002;2023-04-15T03:22:55;8.20;99.90
20384;DHT22;46458;50.966;7.002;2023-04-15T03:25:27;8.20;99.90
20384;DHT22;46458;50.966;7.002;2023-04-15T03:28:03;8.10;99.90
20384;DHT22;46458;50.966;7.002;2023-04-15T03:30:33;8.10;99.90
20384;DHT22;46458;50.966;7.002;2023-04-15T03:33:03;8.00;99.90
20384;DHT22;46458;50.966;7.002;2023-04-15T03:35:34;8.00;99.90
20384;DHT22;46458;50.966;7.002;2023-04-15T03:38:04;7.90;99.90
20384;DHT22;46458;50.966;7.002;2023-04-15T03:40:34;7.80;99.90
20384;DHT22;46458;50.966;7.002;2023-04-15T03:43:07;7.80;99.90
20384;DHT22;46458;50.966;7.002;2023-04-15T03:45:37;7.80;99.90
20384;DHT22;46458;50.966;7.002;2023-04-15T03:48:10;7.70;99.90
20384;DHT22;46458;50.966;7.002;2023-04-15T03:50:40;7.70;99.90
20384;DHT22;46458;50.966;7.002;2023-04-15T03:53:14;7.60;99.90
20384;DHT22;46458;50.966;7.002;2023-04-15T03:55:45;7.60;99.90
20384;DHT22;46458;50.966;7.002;2023-04-15T03:58:18;7.60;99.90
20384;DHT22;46458;50.966;7.002;2023-04-15T04:00:50;7.60;99.90
20384;DHT22;46458;50.966;7.002;2023-04-15T04:03:20;7.50;99.90
20384;DHT22;46458;50.966;7.002;2023-04-15T04:05:50;7.50;99.90
20384;DHT22;46458;50.966;7.002;2023-04-15T04:08:20;7.50;99.90
20384;DHT22;46458;50.966;7.002;2023-04-15T04:10:50;7.50;99.90
20384;DHT22;46458;50.966;7.002;2023-04-15T04:13:23;7.50;99.90
20384;DHT22;46458;50.966;7.002;2023-04-15T04:15:53;7.50;99.90
20384;DHT22;46458;50.966;7.002;2023-04-15T04:18:24;7.50;99.90
20384;DHT22;46458;50.966;7.002;2023-04-15T04:20:54;7.50;99.90
20384;DHT22;46458;50.966;7.002;2023-04-15T04:23:24;7.50;99.90
20384;DHT22;46458;50.966;7.002;2023-04-15T04:25:54;7.50;99.90
20384;DHT22;46458;50.966;7.002;2023-04-15T04:28:27;7.50;99.90
20384;DHT22;46458;50.966;7.002;2023-04-15T04:31:00;7.40;99.90
20384;DHT22;46458;50.966;7.002;2023-04-15T04:33:30;7.40;99.90
20384;DHT22;46458;50.966;7.002;2023-04-15T04:36:00;7.30;99.90
20384;DHT22;46458;50.966;7.002;2023-04-15T04:38:30;7.20;99.90
20384;DHT22;46458;50.966;7.002;2023-04-15T04:41:00;7.30;99.90
20384;DHT22;46458;50.966;7.002;2023-04-15T04:43:33;7.30;99.90
20384;DHT22;46458;50.966;7.002;2023-04-15T04:46:03;7.40;99.90
20384;DHT22;46458;50.966;7.002;2023-04-15T04:48:33;7.40;99.90
20384;DHT22;46458;50.966;7.002;2023-04-15T04:51:03;7.40;99.90
20384;DHT22;46458;50.966;7.002;2023-04-15T04:53:33;7.40;99.90
20384;DHT22;46458;50.966;7.002;2023-04-15T04:56:04;7.50;99.90
20384;DHT22;46458;50.966;7.002;2023-04-15T04:58:39;7.40;99.90
20384;DHT22;46458;50.966;7.002;2023-04-15T05:01:09;7.30;99.90
20384;DHT22;46458;50.966;7.002;2023-04-15T05:03:40;7.30;99.90
20384;DHT22;46458;50.966;7.002;2023-04-15T05:06:10;7.30;99.90
20384;DHT22;46458;50.966;7.002;2023-04-15T05:08:40;7.30;99.90
20384;DHT22;46458;50.966;7.002;2023-04-15T05:11:10;7.30;99.90
20384;DHT22;46458;50.966;7.002;2023-04-15T05:13:45;7.40;99.90
20384;DHT22;46458;50.966;7.002;2023-04-15T05:16:15;7.40;99.90
20384;DHT22;46458;50.966;7.002;2023-04-15T05:18:45;7.40;99.90
20384;DHT22;46458;50.966;7.002;2023-04-15T05:21:15;7.40;99.90
20384;DHT22;46458;50.966;7.002;2023-04-15T05:23:46;7.50;99.90
20384;DHT22;46458;50.966;7.002;2023-04-15T05:26:16;7.50;99.90
20384;DHT22;46458;50.966;7.002;2023-04-15T05:28:50;7.50;99.90
20384;DHT22;46458;50.966;7.002;2023-04-15T05:31:20;7.40;99.90
20384;DHT22;46458;50.966;7.002;2023-04-15T05:33:50;7.30;99.90
20384;DHT22;46458;50.966;7.002;2023-04-15T05:36:22;7.20;99.90
20384;DHT22;46458;50.966;7.002;2023-04-15T05:38:55;7.20;99.90
20384;DHT22;46458;50.966;7.002;2023-04-15T05:41:25;7.10;99.90
20384;DHT22;46458;50.966;7.002;2023-04-15T05:44:00;7.20;99.90
20384;DHT22;46458;50.966;7.002;2023-04-15T05:46:30;7.40;99.90
20384;DHT22;46458;50.966;7.002;2023-04-15T05:49:00;7.40;99.90
20384;DHT22;46458;50.966;7.002;2023-04-15T05:51:30;7.50;99.90
20384;DHT22;46458;50.966;7.002;2023-04-15T05:54:00;7.50;99.90
20384;DHT22;46458;50.966;7.002;2023-04-15T05:56:30;7.50;99.90
20384;DHT22;46458;50.966;7.002;2023-04-15T05:59:03;7.60;99.90
20384;DHT22;46458;50.966;7.002;2023-04-15T06:01:33;7.70;99.90
20384;DHT22;46458;50.966;7.002;2023-04-15T06:04:04;7.90;99.90
20384;DHT22;46458;50.966;7.002;2023-04-15T06:06:34;8.10;99.90
20384;DHT22;46458;50.966;7.002;2023-04-15T06:09:04;8.20;99.90
20384;DHT22;46458;50.966;7.002;2023-04-15T06:11:34;8.30;99.90
20384;DHT22;46458;50.966;7.002;2023-04-15T06:14:09;8.40;99.90
20384;DHT22;46458;50.966;7.002;2023-04-15T06:16:40;8.50;99.90
20384;DHT22;46458;50.966;7.002;2023-04-15T06:19:10;8.50;99.90
20384;DHT22;46458;50.966;7.002;2023-04-15T06:21:40;8.60;99.90
20384;DHT22;46458;50.966;7.002;2023-04-15T06:24:10;8.80;99.90
20384;DHT22;46458;50.966;7.002;2023-04-15T06:26:40;8.90;99.90
20384;DHT22;46458;50.966;7.002;2023-04-15T06:29:16;9.10;99.90
20384;DHT22;46458;50.966;7.002;2023-04-15T06:31:46;9.10;99.90
20384;DHT22;46458;50.966;7.002;2023-04-15T06:34:17;9.20;99.90
20384;DHT22;46458;50.966;7.002;2023-04-15T06:36:47;9.30;99.90
20384;DHT22;46458;50.966;7.002;2023-04-15T06:39:17;9.40;99.90
20384;DHT22;46458;50.966;7.002;2023-04-15T06:41:47;9.50;99.90
20384;DHT22;46458;50.966;7.002;2023-04-15T06:44:24;9.70;99.90
20384;DHT22;46458;50.966;7.002;2023-04-15T06:46:54;9.80;99.90
20384;DHT22;46458;50.966;7.002;2023-04-15T06:49:24;9.90;99.90
20384;DHT22;46458;50.966;7.002;2023-04-15T06:51:56;9.90;99.90
20384;DHT22;46458;50.966;7.002;2023-04-15T06:54:26;10.00;99.90
20384;DHT22;46458;50.966;7.002;2023-04-15T06:56:56;10.10;99.90
20384;DHT22;46458;50.966;7.002;2023-04-15T06:59:29;10.20;99.90
20384;DHT22;46458;50.966;7.002;2023-04-15T07:01:59;10.20;99.90
20384;DHT22;46458;50.966;7.002;2023-04-15T07:04:29;10.20;99.90
20384;DHT22;46458;50.966;7.002;2023-04-15T07:06:59;10.30;99.90
20384;DHT22;46458;50.966;7.002;2023-04-15T07:09:29;10.40;99.90
20384;DHT22;46458;50.966;7.002;2023-04-15T07:12:00;10.50;99.90
20384;DHT22;46458;50.966;7.002;2023-04-15T07:14:35;10.60;99.90
20384;DHT22;46458;50.966;7.002;2023-04-15T07:17:05;10.80;99.90
20384;DHT22;46458;50.966;7.002;2023-04-15T07:19:41;10.80;99.90
20384;DHT22;46458;50.966;7.002;2023-04-15T07:22:12;11.00;99.90
20384;DHT22;46458;50.966;7.002;2023-04-15T07:24:42;11.20;99.90
20384;DHT22;46458;50.966;7.002;2023-04-15T07:27:12;11.40;99.90
20384;DHT22;46458;50.966;7.002;2023-04-15T07:29:47;11.60;99.90
20384;DHT22;46458;50.966;7.002;2023-04-15T07:32:18;11.80;99.90
20384;DHT22;46458;50.966;7.002;2023-04-15T07:34:48;11.90;99.90
20384;DHT22;46458;50.966;7.002;2023-04-15T07:37:18;12.00;99.90
20384;DHT22;46458;50.966;7.002;2023-04-15T07:39:48;12.10;99.90
20384;DHT22;46458;50.966;7.002;2023-04-15T07:42:21;12.10;99.90
20384;DHT22;46458;50.966;7.002;2023-04-15T07:44:57;12.10;99.90
20384;DHT22;46458;50.966;7.002;2023-04-15T07:47:28;12.30;99.90
20384;DHT22;46458;50.966;7.002;2023-04-15T07:49:58;12.40;99.90
20384;DHT22;46458;50.966;7.002;2023-04-15T07:52:28;12.40;99.90
20384;DHT22;46458;50.966;7.002;2023-04-15T07:55:01;12.60;99.90
20384;DHT22;46458;50.966;7.002;2023-04-15T07:57:31;12.70;99.90
20384;DHT22;46458;50.966;7.002;2023-04-15T08:00:05;12.90;99.90
20384;DHT22;46458;50.966;7.002;2023-04-15T08:02:42;13.10;99.90
20384;DHT22;46458;50.966;7.002;2023-04-15T08:05:13;13.30;99.90
20384;DHT22;46458;50.966;7.002;2023-04-15T08:07:43;13.40;99.90
20384;DHT22;46458;50.966;7.002;2023-04-15T08:10:13;13.30;99.90
20384;DHT22;46458;50.966;7.002;2023-04-15T08:12:46;13.30;99.90
20384;DHT22;46458;50.966;7.002;2023-04-15T08:15:22;13.30;99.90
20384;DHT22;46458;50.966;7.002;2023-04-15T08:17:53;13.30;99.90
20384;DHT22;46458;50.966;7.002;2023-04-15T08:20:23;13.40;99.90
20384;DHT22;46458;50.966;7.002;2023-04-15T08:22:53;13.50;99.90
20384;DHT22;46458;50.966;7.002;2023-04-15T08:25:26;13.70;99.90
20384;DHT22;46458;50.966;7.002;2023-04-15T08:27:56;13.90;99.90
20384;DHT22;46458;50.966;7.002;2023-04-15T08:30:29;14.10;99.90
20384;DHT22;46458;50.966;7.002;2023-04-15T08:32:59;14.00;99.90
20384;DHT22;46458;50.966;7.002;2023-04-15T08:35:32;13.90;99.90
20384;DHT22;46458;50.966;7.002;2023-04-15T08:38:02;14.00;99.90
20384;DHT22;46458;50.966;7.002;2023-04-15T08:40:40;14.00;99.90
20384;DHT22;46458;50.966;7.002;2023-04-15T08:43:14;14.00;99.90
20384;DHT22;46458;50.966;7.002;2023-04-15T08:45:50;14.00;99.90
20384;DHT22;46458;50.966;7.002;2023-04-15T08:48:24;14.00;99.90
20384;DHT22;46458;50.966;7.002;2023-04-15T08:50:56;14.00;99.90
20384;DHT22;46458;50.966;7.002;2023-04-15T08:53:28;14.00;99.90
20384;DHT22;46458;50.966;7.002;2023-04-15T08:56:04;13.80;99.90
20384;DHT22;46458;50.966;7.002;2023-04-15T08:58:36;13.80;99.90
20384;DHT22;46458;50.966;7.002;2023-04-15T09:01:11;13.70;99.90
20384;DHT22;46458;50.966;7.002;2023-04-15T09:03:45;13.70;99.90
20384;DHT22;46458;50.966;7.002;2023-04-15T09:06:17;13.60;99.90
20384;DHT22;46458;50.966;7.002;2023-04-15T09:08:48;13.80;99.90
20384;DHT22;46458;50.966;7.002;2023-04-15T09:11:20;13.90;99.90
20384;DHT22;46458;50.966;7.002;2023-04-15T09:13:51;14.30;99.90
20384;DHT22;46458;50.966;7.002;2023-04-15T09:16:23;14.60;99.90
20384;DHT22;46458;50.966;7.002;2023-04-15T09:18:53;14.60;99.90
20384;DHT22;46458;50.966;7.002;2023-04-15T09:21:23;14.50;99.90
20384;DHT22;46458;50.966;7.002;2023-04-15T09:23:57;14.50;99.90
20384;DHT22;46458;50.966;7.002;2023-04-15T09:26:37;14.60;99.90
20384;DHT22;46458;50.966;7.002;2023-04-15T09:29:08;14.70;99.90
20384;DHT22;46458;50.966;7.002;2023-04-15T09:31:44;14.80;99.90
20384;DHT22;46458;50.966;7.002;2023-04-15T09:34:15;14.90;99.90
20384;DHT22;46458;50.966;7.002;2023-04-15T09:36:52;14.90;99.90
20384;DHT22;46458;50.966;7.002;2023-04-15T09:39:23;15.00;99.90
20384;DHT22;46458;50.966;7.002;2023-04-15T09:42:11;15.00;99.90
20384;DHT22;46458;50.966;7.002;2023-04-15T09:44:41;15.10;99.90
20384;DHT22;46458;50.966;7.002;2023-04-15T09:47:31;15.50;99.90
20384;DHT22;46458;50.966;7.002;2023-04-15T09:50:02;15.70;99.90
20384;DHT22;46458;50.966;7.002;2023-04-15T09:52:32;16.10;99.90
20384;DHT22;46458;50.966;7.002;2023-04-15T09:55:05;16.50;99.90
20384;DHT22;46458;50.966;7.002;2023-04-15T09:57:36;16.70;99.90
20384;DHT22;46458;50.966;7.002;2023-04-15T10:00:08;16.80;99.90
20384;DHT22;46458;50.966;7.002;2023-04-15T10:02:42;16.80;99.90
20384;DHT22;46458;50.966;7.002;2023-04-15T10:05:16;16.50;99.90
20384;DHT22;46458;50.966;7.002;2023-04-15T10:07:49;16.60;99.90
20384;DHT22;46458;50.966;7.002;2023-04-15T10:10:19;16.70;99.90
20384;DHT22;46458;50.966;7.002;2023-04-15T10:12:51;16.80;99.90
20384;DHT22;46458;50.966;7.002;2023-04-15T10:15:22;17.20;99.90
20384;DHT22;46458;50.966;7.002;2023-04-15T10:17:57;17.30;99.90
20384;DHT22;46458;50.966;7.002;2023-04-15T10:20:32;17.60;99.90
20384;DHT22;46458;50.966;7.002;2023-04-15T10:23:02;17.90;99.90
20384;DHT22;46458;50.966;7.002;2023-04-15T10:25:33;18.20;99.90
20384;DHT22;46458;50.966;7.002;2023-04-15T10:28:06;18.40;99.90
20384;DHT22;46458;50.966;7.002;2023-04-15T10:30:36;18.40;99.90
20384;DHT22;46458;50.966;7.002;2023-04-15T10:33:10;18.20;99.90
20384;DHT22;46458;50.966;7.002;2023-04-15T10:35:40;17.80;99.90
20384;DHT22;46458;50.966;7.002;2023-04-15T10:38:31;17.70;99.90
20384;DHT22;46458;50.966;7.002;2023-04-15T10:41:15;18.00;99.90
20384;DHT22;46458;50.966;7.002;2023-04-15T10:43:50;18.10;99.90
20384;DHT22;46458;50.966;7.002;2023-04-15T10:46:22;17.80;99.90
20384;DHT22;46458;50.966;7.002;2023-04-15T10:48:55;17.40;99.90
20384;DHT22;46458;50.966;7.002;2023-04-15T10:51:29;17.30;99.90
20384;DHT22;46458;50.966;7.002;2023-04-15T10:54:00;17.00;99.90
20384;DHT22;46458;50.966;7.002;2023-04-15T10:56:30;16.90;99.90
20384;DHT22;46458;50.966;7.002;2023-04-15T10:59:00;17.00;99.90
20384;DHT22;46458;50.966;7.002;2023-04-15T11:01:49;16.90;99.90
20384;DHT22;46458;50.966;7.002;2023-04-15T11:04:53;16.80;99.90
20384;DHT22;46458;50.966;7.002;2023-04-15T11:07:37;16.80;99.90
20384;DHT22;46458;50.966;7.002;2023-04-15T11:13:26;15.90;99.90
20384;DHT22;46458;50.966;7.002;2023-04-15T11:15:59;15.70;99.90
20384;DHT22;46458;50.966;7.002;2023-04-15T11:18:33;15.40;99.90
20384;DHT22;46458;50.966;7.002;2023-04-15T11:21:09;15.20;99.90
20384;DHT22;46458;50.966;7.002;2023-04-15T11:23:40;15.10;99.90
20384;DHT22;46458;50.966;7.002;2023-04-15T11:26:15;15.00;99.90
20384;DHT22;46458;50.966;7.002;2023-04-15T11:28:48;14.90;99.90
20384;DHT22;46458;50.966;7.002;2023-04-15T11:31:18;14.80;99.90
20384;DHT22;46458;50.966;7.002;2023-04-15T11:33:54;14.70;99.90
20384;DHT22;46458;50.966;7.002;2023-04-15T11:36:28;14.60;99.90
20384;DHT22;46458;50.966;7.002;2023-04-15T11:38:59;14.50;99.90
20384;DHT22;46458;50.966;7.002;2023-04-15T11:41:29;14.60;99.90
20384;DHT22;46458;50.966;7.002;2023-04-15T11:43:59;14.60;99.90
20384;DHT22;46458;50.966;7.002;2023-04-15T11:46:30;14.80;99.90
20384;DHT22;46458;50.966;7.002;2023-04-15T11:49:00;14.90;99.90
20384;DHT22;46458;50.966;7.002;2023-04-15T11:51:34;15.10;99.90
20384;DHT22;46458;50.966;7.002;2023-04-15T11:54:03;15.20;99.90
20384;DHT22;46458;50.966;7.002;2023-04-15T11:56:32;15.00;99.90
20384;DHT22;46458;50.966;7.002;2023-04-15T11:59:01;15.00;99.90
20384;DHT22;46458;50.966;7.002;2023-04-15T12:01:35;15.00;99.90
20384;DHT22;46458;50.966;7.002;2023-04-15T12:04:10;14.70;99.90
20384;DHT22;46458;50.966;7.002;2023-04-15T12:06:45;14.40;99.90
20384;DHT22;46458;50.966;7.002;2023-04-15T12:09:15;14.40;99.90
20384;DHT22;46458;50.966;7.002;2023-04-15T12:11:47;14.20;99.90
20384;DHT22;46458;50.966;7.002;2023-04-15T12:14:23;14.00;99.90
20384;DHT22;46458;50.966;7.002;2023-04-15T12:16:54;14.00;99.90
20384;DHT22;46458;50.966;7.002;2023-04-15T12:19:27;13.90;99.90
20384;DHT22;46458;50.966;7.002;2023-04-15T12:22:01;13.80;99.90
20384;DHT22;46458;50.966;7.002;2023-04-15T12:24:34;13.70;99.90
20384;DHT22;46458;50.966;7.002;2023-04-15T12:27:04;13.70;99.90
20384;DHT22;46458;50.966;7.002;2023-04-15T12:29:36;13.50;99.90
20384;DHT22;46458;50.966;7.002;2023-04-15T12:32:07;13.40;99.90
20384;DHT22;46458;50.966;7.002;2023-04-15T12:34:38;13.40;99.90
20384;DHT22;46458;50.966;7.002;2023-04-15T12:37:13;13.40;99.90
20384;DHT22;46458;50.966;7.002;2023-04-15T12:39:47;13.40;99.90
20384;DHT22;46458;50.966;7.002;2023-04-15T12:42:17;13.40;99.90
20384;DHT22;46458;50.966;7.002;2023-04-15T12:44:47;13.30;99.90
20384;DHT22;46458;50.966;7.002;2023-04-15T12:47:16;13.30;99.90
20384;DHT22;46458;50.966;7.002;2023-04-15T12:49:45;13.30;99.90
20384;DHT22;46458;50.966;7.002;2023-04-15T12:52:19;13.30;99.90
20384;DHT22;46458;50.966;7.002;2023-04-15T12:54:49;13.30;99.90
20384;DHT22;46458;50.966;7.002;2023-04-15T12:57:18;13.20;99.90
20384;DHT22;46458;50.966;7.002;2023-04-15T12:59:47;13.20;99.90
20384;DHT22;46458;50.966;7.002;2023-04-15T13:02:15;13.10;99.90
20384;DHT22;46458;50.966;7.002;2023-04-15T13:04:45;13.00;99.90
20384;DHT22;46458;50.966;7.002;2023-04-15T13:07:14;12.90;99.90
20384;DHT22;46458;50.966;7.002;2023-04-15T13:09:47;12.90;99.90
20384;DHT22;46458;50.966;7.002;2023-04-15T13:12:16;12.80;99.90
20384;DHT22;46458;50.966;7.002;2023-04-15T13:14:45;12.80;99.90
20384;DHT22;46458;50.966;7.002;2023-04-15T13:17:14;12.80;99.90
20384;DHT22;46458;50.966;7.002;2023-04-15T13:19:45;12.70;99.90
20384;DHT22;46458;50.966;7.002;2023-04-15T13:22:14;12.60;99.90
20384;DHT22;46458;50.966;7.002;2023-04-15T13:24:45;12.60;99.90
20384;DHT22;46458;50.966;7.002;2023-04-15T13:27:17;12.60;99.90
20384;DHT22;46458;50.966;7.002;2023-04-15T13:29:46;12.60;99.90
20384;DHT22;46458;50.966;7.002;2023-04-15T13:32:15;12.60;99.90
20384;DHT22;46458;50.966;7.002;2023-04-15T13:34:43;12.70;99.90
20384;DHT22;46458;50.966;7.002;2023-04-15T13:37:12;12.50;99.90
20384;DHT22;46458;50.966;7.002;2023-04-15T13:39:42;12.50;99.90
20384;DHT22;46458;50.966;7.002;2023-04-15T13:42:13;12.50;99.90
20384;DHT22;46458;50.966;7.002;2023-04-15T13:44:42;12.50;99.90
20384;DHT22;46458;50.966;7.002;2023-04-15T13:47:11;12.50;99.90
20384;DHT22;46458;50.966;7.002;2023-04-15T13:49:40;12.50;99.90
20384;DHT22;46458;50.966;7.002;2023-04-15T13:52:10;12.40;99.90
20384;DHT22;46458;50.966;7.002;2023-04-15T13:54:39;12.40;99.90
20384;DHT22;46458;50.966;7.002;2023-04-15T13:57:13;12.40;99.90
20384;DHT22;46458;50.966;7.002;2023-04-15T13:59:42;12.40;99.90
20384;DHT22;46458;50.966;7.002;2023-04-15T14:02:11;12.40;99.90
20384;DHT22;46458;50.966;7.002;2023-04-15T14:04:40;12.50;99.90
20384;DHT22;46458;50.966;7.002;2023-04-15T14:07:09;12.50;99.90
20384;DHT22;46458;50.966;7.002;2023-04-15T14:09:39;12.60;99.90
20384;DHT22;46458;50.966;7.002;2023-04-15T14:12:14;12.50;99.90
20384;DHT22;46458;50.966;7.002;2023-04-15T14:14:44;12.50;99.90
20384;DHT22;46458;50.966;7.002;2023-04-15T14:17:13;12.60;99.90
20384;DHT22;46458;50.966;7.002;2023-04-15T14:19:42;12.60;99.90
20384;DHT22;46458;50.966;7.002;2023-04-15T14:22:11;12.70;99.90
20384;DHT22;46458;50.966;7.002;2023-04-15T14:24:39;12.70;99.90
20384;DHT22;46458;50.966;7.002;2023-04-15T14:27:08;12.70;99.90
20384;DHT22;46458;50.966;7.002;2023-04-15T14:29:42;12.70;99.90
20384;DHT22;46458;50.966;7.002;2023-04-15T14:32:11;12.70;99.90
20384;DHT22;46458;50.966;7.002;2023-04-15T14:34:40;12.80;99.90
20384;DHT22;46458;50.966;7.002;2023-04-15T14:37:12;12.90;99.90
20384;DHT22;46458;50.966;7.002;2023-04-15T14:39:41;13.00;99.90
20384;DHT22;46458;50.966;7.002;2023-04-15T14:42:10;12.90;99.90
20384;DHT22;46458;50.966;7.002;2023-04-15T14:44:46;12.80;99.90
20384;DHT22;46458;50.966;7.002;2023-04-15T14:47:15;12.70;99.90
20384;DHT22;46458;50.966;7.002;2023-04-15T14:49:44;12.60;99.90
20384;DHT22;46458;50.966;7.002;2023-04-15T14:52:13;12.70;99.90
20384;DHT22;46458;50.966;7.002;2023-04-15T14:54:44;12.50;99.90
20384;DHT22;46458;50.966;7.002;2023-04-15T14:57:13;12.50;99.90
20384;DHT22;46458;50.966;7.002;2023-04-15T14:59:42;12.50;99.90
20384;DHT22;46458;50.966;7.002;2023-04-15T15:02:13;12.40;99.90
20384;DHT22;46458;50.966;7.002;2023-04-15T15:04:42;12.30;99.90
20384;DHT22;46458;50.966;7.002;2023-04-15T15:07:11;12.20;99.90
20384;DHT22;46458;50.966;7.002;2023-04-15T15:09:40;12.10;99.90
20384;DHT22;46458;50.966;7.002;2023-04-15T15:12:12;12.10;99.90
20384;DHT22;46458;50.966;7.002;2023-04-15T15:14:41;12.00;99.90
20384;DHT22;46458;50.966;7.002;2023-04-15T15:17:14;12.00;99.90
20384;DHT22;46458;50.966;7.002;2023-04-15T15:19:43;12.10;99.90
20384;DHT22;46458;50.966;7.002;2023-04-15T15:22:15;12.10;99.90
20384;DHT22;46458;50.966;7.002;2023-04-15T15:24:44;12.10;99.90
20384;DHT22;46458;50.966;7.002;2023-04-15T15:27:12;12.10;99.90
20384;DHT22;46458;50.966;7.002;2023-04-15T15:29:41;12.20;99.90
20384;DHT22;46458;50.966;7.002;2023-04-15T15:32:14;12.20;99.90
20384;DHT22;46458;50.966;7.002;2023-04-15T15:34:43;12.10;99.90
20384;DHT22;46458;50.966;7.002;2023-04-15T15:37:12;12.10;99.90
20384;DHT22;46458;50.966;7.002;2023-04-15T15:39:46;12.00;99.90
20384;DHT22;46458;50.966;7.002;2023-04-15T15:42:17;11.90;99.90
20384;DHT22;46458;50.966;7.002;2023-04-15T15:44:46;11.90;99.90
20384;DHT22;46458;50.966;7.002;2023-04-15T15:47:17;11.90;99.90
20384;DHT22;46458;50.966;7.002;2023-04-15T15:49:46;11.80;99.90
20384;DHT22;46458;50.966;7.002;2023-04-15T15:52:15;11.90;99.90
20384;DHT22;46458;50.966;7.002;2023-04-15T15:54:44;11.90;99.90
20384;DHT22;46458;50.966;7.002;2023-04-15T15:57:13;11.90;99.90
20384;DHT22;46458;50.966;7.002;2023-04-15T15:59:41;11.80;99.90
20384;DHT22;46458;50.966;7.002;2023-04-15T16:02:12;11.70;99.90
20384;DHT22;46458;50.966;7.002;2023-04-15T16:04:44;11.70;99.90
20384;DHT22;46458;50.966;7.002;2023-04-15T16:07:12;11.70;99.90